Time;durP1;ratioP1;P1;durP2;ratioP2;P2;SDS_P1;SDS_P2;PMS_P1;PMS_P2;Temp;Humidity;BMP_temperature;BMP_pressure;BME280_temperature;BME280_humidity;BME280_pressure;Samples;Min_cycle;Max_cycle;Signal;HPM_P1;HPM_P2
2022/08/16 00:01:02;;;;;;;1.23;1.00;;;24.00;53.50;24.50;95983.00;;;;5094791;28;20197;-83
2022/08/16 00:03:29;;;;;;;1.20;1.10;;;23.90;53.60;24.40;95985.00;;;;5094591;28;20210;-84
2022/08/16 00:05:56;;;;;;;2.10;1.00;;;23.90;53.70;24.30;95984.00;;;;5094352;28;20703;-84
2022/08/16 00:08:24;;;;;;;1.10;1.10;;;23.80;53.80;24.30;95978.00;;;;5094606;28;20621;-84
2022/08/16 00:10:51;;;;;;;1.70;1.20;;;23.70;53.90;24.20;95981.00;;;;5095156;28;20243;-84
2022/08/16 00:13:19;;;;;;;0.90;0.90;;;23.70;54.10;24.20;95978.00;;;;5094560;28;20288;-83
2022/08/16 00:15:49;;;;;;;3.87;1.20;;;23.70;54.20;24.20;95975.00;;;;5093811;28;20238;-83
2022/08/16 00:18:19;;;;;;;0.80;0.80;;;23.60;54.40;24.20;95974.00;;;;5094781;28;20354;-84
2022/08/16 00:20:48;;;;;;;0.87;0.87;;;23.60;54.50;24.20;95983.00;;;;5094240;28;20221;-83
2022/08/16 00:23:15;;;;;;;1.00;1.00;;;23.60;54.60;24.10;95978.00;;;;5093381;28;20195;-84
2022/08/16 00:25:43;;;;;;;1.10;1.10;;;23.50;54.60;24.10;95987.00;;;;5092555;28;20253;-84
2022/08/16 00:28:11;;;;;;;1.10;1.10;;;23.50;54.70;24.10;95981.00;;;;5092894;28;20680;-84
2022/08/16 00:30:39;;;;;;;0.93;0.90;;;23.50;54.90;24.00;95984.00;;;;5094203;28;20248;-83
2022/08/16 00:33:07;;;;;;;1.13;1.13;;;23.40;54.90;24.00;95990.00;;;;5093721;28;20561;-84
2022/08/16 00:35:38;;;;;;;0.73;0.73;;;23.40;54.90;24.00;95987.00;;;;5094442;28;20274;-84
2022/08/16 00:38:07;;;;;;;1.30;1.00;;;23.40;55.10;24.00;95990.00;;;;5095037;28;20203;-84
2022/08/16 00:40:38;;;;;;;1.23;0.97;;;23.40;55.20;24.00;95990.00;;;;5094458;28;20205;-83
2022/08/16 00:43:08;;;;;;;1.30;0.87;;;23.40;55.40;23.90;95990.00;;;;5094453;28;20191;-83
2022/08/16 00:45:43;;;;;;;1.00;1.00;;;23.30;55.40;23.90;95982.00;;;;5093047;28;20195;-84
2022/08/16 00:48:14;;;;;;;1.37;1.20;;;23.30;55.40;23.90;95983.00;;;;5094266;28;20566;-83
2022/08/16 00:50:45;;;;;;;1.13;1.00;;;23.30;55.50;23.90;95983.00;;;;5094164;28;20294;-84
2022/08/16 00:53:15;;;;;;;0.90;0.90;;;23.30;55.70;23.80;95974.00;;;;5093080;28;20239;-84
2022/08/16 00:55:48;;;;;;;0.80;0.80;;;23.30;55.80;23.80;95983.00;;;;5093855;28;20192;-84
2022/08/16 00:58:19;;;;;;;0.73;0.73;;;23.30;55.90;23.80;95977.00;;;;5093134;28;20199;-84
2022/08/16 01:00:49;;;;;;;1.73;1.17;;;23.20;55.80;23.80;95982.00;;;;5094006;28;20231;-84
2022/08/16 01:03:20;;;;;;;2.23;1.30;;;23.20;55.90;23.80;95991.00;;;;5109931;28;20294;-84
2022/08/16 01:05:50;;;;;;;1.23;1.13;;;23.20;56.00;23.80;95991.00;;;;5114739;28;20198;-84
2022/08/16 01:08:22;;;;;;;0.83;0.83;;;23.20;56.10;23.80;95989.00;;;;5114052;28;20570;-84
2022/08/16 01:10:51;;;;;;;0.80;0.80;;;23.20;56.20;23.80;95984.00;;;;5114372;28;20202;-84
2022/08/16 01:13:23;;;;;;;1.00;1.00;;;23.20;56.10;23.80;95982.00;;;;5093905;28;20241;-84
2022/08/16 01:15:59;;;;;;;0.60;0.60;;;23.20;56.30;23.80;95983.00;;;;5092640;28;20200;-83
2022/08/16 01:18:35;;;;;;;1.07;1.03;;;23.20;56.50;23.80;95985.00;;;;5093159;28;20219;-84
2022/08/16 01:21:20;;;;;;;1.83;0.90;;;23.20;56.50;23.80;95976.00;;;;5092840;28;20267;-84
2022/08/16 01:24:13;;;;;;;0.67;0.60;;;23.20;56.60;23.80;95980.00;;;;5092620;28;20203;-84
2022/08/16 01:26:43;;;;;;;1.27;0.80;;;23.20;56.60;23.80;95982.00;;;;5092164;28;20721;-84
2022/08/16 01:29:23;;;;;;;0.60;0.60;;;23.20;56.40;23.80;95977.00;;;;5093011;28;20215;-84
2022/08/16 01:31:50;;;;;;;0.90;0.90;;;23.20;56.70;23.80;95971.00;;;;5098464;28;20254;-84
2022/08/16 01:34:19;;;;;;;0.83;0.83;;;23.20;56.70;23.80;95970.00;;;;5117148;28;20659;-84
2022/08/16 01:36:46;;;;;;;0.80;0.80;;;23.20;56.80;23.90;95967.00;;;;5117540;28;20198;-84
2022/08/16 01:39:17;;;;;;;1.27;0.77;;;23.20;56.90;23.90;95965.00;;;;5117509;28;20215;-84
2022/08/16 01:41:46;;;;;;;0.70;0.70;;;23.20;57.00;23.90;95964.00;;;;5118127;28;20643;-84
2022/08/16 01:44:13;;;;;;;1.00;0.90;;;23.20;57.00;23.90;95957.00;;;;5116989;28;20194;-84
2022/08/16 01:46:44;;;;;;;0.70;0.70;;;23.20;57.00;23.90;95970.00;;;;5116550;28;20203;-84
2022/08/16 01:49:15;;;;;;;0.87;0.83;;;23.20;57.10;23.90;95964.00;;;;5117211;28;20219;-84
2022/08/16 01:51:47;;;;;;;0.90;0.90;;;23.20;57.00;23.80;95964.00;;;;5116922;28;20255;-83
2022/08/16 01:54:16;;;;;;;0.80;0.80;;;23.20;56.90;23.80;95967.00;;;;5116925;28;20260;-84
2022/08/16 01:56:43;;;;;;;1.77;0.67;;;23.20;57.00;23.80;95963.00;;;;5116782;28;20245;-84
2022/08/16 01:59:14;;;;;;;0.70;0.70;;;23.20;57.00;23.80;95967.00;;;;5116246;28;20223;-84
2022/08/16 02:01:41;;;;;;;1.00;0.90;;;23.20;57.10;23.80;95958.00;;;;5112840;28;20655;-84
2022/08/16 02:04:09;;;;;;;0.70;0.70;;;23.20;57.10;23.80;95962.00;;;;5095157;28;20647;-84
2022/08/16 02:06:36;;;;;;;0.83;0.83;;;23.10;57.10;23.80;95963.00;;;;5095568;28;20603;-84
2022/08/16 02:09:06;;;;;;;0.73;0.73;;;23.10;57.70;23.70;95966.00;;;;5095225;28;20216;-84
2022/08/16 02:11:37;;;;;;;0.70;0.70;;;23.10;57.20;23.70;95957.00;;;;5095907;28;20547;-84
2022/08/16 02:14:05;;;;;;;1.00;0.87;;;23.10;57.30;23.70;95957.00;;;;5095599;28;20203;-84
2022/08/16 02:16:32;;;;;;;0.70;0.70;;;23.10;57.20;23.70;95952.00;;;;5095535;28;20218;-84
2022/08/16 02:19:00;;;;;;;1.10;1.00;;;23.10;57.30;23.70;95956.00;;;;5095631;28;20215;-84
2022/08/16 02:21:29;;;;;;;0.80;0.80;;;23.10;57.30;23.70;95942.00;;;;5096048;28;20264;-84
2022/08/16 02:23:56;;;;;;;0.90;0.80;;;23.10;57.30;23.70;95945.00;;;;5095784;28;20203;-84
2022/08/16 02:26:25;;;;;;;0.90;0.90;;;23.10;57.40;23.70;95936.00;;;;5095048;28;20249;-84
2022/08/16 02:28:54;;;;;;;0.93;0.93;;;23.10;57.50;23.70;95946.00;;;;5096004;28;20219;-84
2022/08/16 02:31:21;;;;;;;0.70;0.70;;;23.10;57.50;23.70;95938.00;;;;5095953;28;20242;-84
2022/08/16 02:33:49;;;;;;;0.93;0.70;;;23.10;57.50;23.70;95936.00;;;;5116397;28;20477;-83
2022/08/16 02:36:16;;;;;;;1.00;0.60;;;23.10;57.50;23.60;95941.00;;;;5116000;28;20208;-83
2022/08/16 02:38:43;;;;;;;0.67;0.67;;;23.10;57.60;23.60;95929.00;;;;5115757;28;20745;-84
2022/08/16 02:41:11;;;;;;;0.60;0.60;;;23.10;57.60;23.60;95927.00;;;;5115360;28;20226;-83
2022/08/16 02:43:38;;;;;;;0.80;0.80;;;23.00;57.60;23.60;95933.00;;;;5115737;28;20225;-83
2022/08/16 02:46:09;;;;;;;0.90;0.90;;;23.10;57.60;23.60;95931.00;;;;5114542;28;20720;-84
2022/08/16 02:48:38;;;;;;;0.70;0.70;;;23.00;57.70;23.60;95934.00;;;;5115573;28;20288;-84
2022/08/16 02:51:08;;;;;;;0.80;0.80;;;23.00;57.60;23.60;95923.00;;;;5115356;28;20201;-84
2022/08/16 02:53:39;;;;;;;0.70;0.70;;;23.00;57.70;23.60;95924.00;;;;5114649;28;20218;-84
2022/08/16 02:56:09;;;;;;;0.80;0.80;;;23.00;57.90;23.60;95926.00;;;;5116078;28;20260;-84
2022/08/16 02:58:37;;;;;;;1.80;0.80;;;23.00;57.80;23.60;95925.00;;;;5115320;28;20750;-84
2022/08/16 03:01:08;;;;;;;1.00;0.80;;;23.00;57.80;23.50;95924.00;;;;5115582;28;20576;-84
2022/08/16 03:03:37;;;;;;;0.67;0.67;;;23.00;57.80;23.60;95923.00;;;;5095581;28;20211;-84
2022/08/16 03:06:05;;;;;;;0.83;0.83;;;22.90;57.80;23.50;95929.00;;;;5094799;28;20206;-84
2022/08/16 03:08:33;;;;;;;1.37;0.93;;;22.90;57.90;23.50;95932.00;;;;5094644;28;20215;-84
2022/08/16 03:11:00;;;;;;;0.83;0.83;;;22.90;58.00;23.50;95926.00;;;;5094497;28;20211;-84
2022/08/16 03:13:28;;;;;;;2.27;0.80;;;22.90;58.00;23.50;95929.00;;;;5093750;28;20306;-84
2022/08/16 03:15:55;;;;;;;0.70;0.70;;;22.90;58.10;23.50;95934.00;;;;5093928;28;20257;-84
2022/08/16 03:18:24;;;;;;;0.80;0.80;;;22.90;58.10;23.50;95936.00;;;;5095020;28;20231;-84
2022/08/16 03:20:51;;;;;;;1.10;1.00;;;22.90;58.10;23.40;95931.00;;;;5094178;28;20673;-84
2022/08/16 03:23:19;;;;;;;1.23;1.10;;;22.80;58.10;23.40;95946.00;;;;5094598;28;20233;-84
2022/08/16 03:25:46;;;;;;;0.70;0.70;;;22.90;58.20;23.40;95943.00;;;;5087970;28;20919;-84
2022/08/16 03:28:13;;;;;;;0.90;0.90;;;22.80;58.20;23.40;95944.00;;;;5087997;28;20195;-84
2022/08/16 03:30:41;;;;;;;1.63;0.87;;;22.80;58.30;23.40;95949.00;;;;5093858;28;20670;-84
2022/08/16 03:33:08;;;;;;;2.67;1.10;;;22.80;58.30;23.40;95959.00;;;;5092612;28;20227;-84
2022/08/16 03:35:39;;;;;;;1.20;1.10;;;22.80;58.40;23.40;95950.00;;;;5093479;28;20192;-84
2022/08/16 03:38:09;;;;;;;2.20;0.80;;;22.80;58.50;23.30;95954.00;;;;5095105;28;20203;-84
2022/08/16 03:40:38;;;;;;;2.93;0.80;;;22.70;58.60;23.30;95955.00;;;;5093307;28;20230;-83
2022/08/16 03:43:10;;;;;;;1.13;0.90;;;22.70;58.70;23.30;95948.00;;;;5094589;28;20278;-84
2022/08/16 03:45:40;;;;;;;1.90;0.80;;;22.70;58.90;23.30;95957.00;;;;5093844;28;20290;-84
2022/08/16 03:48:09;;;;;;;2.90;1.13;;;22.70;58.90;23.20;95954.00;;;;5094504;28;20624;-84
2022/08/16 03:50:38;;;;;;;1.30;0.90;;;22.70;59.00;23.20;95962.00;;;;5094316;28;20289;-84
2022/08/16 03:53:06;;;;;;;2.13;0.80;;;22.60;59.10;23.10;95975.00;;;;5094191;28;20223;-83
2022/08/16 03:55:33;;;;;;;0.80;0.80;;;22.60;59.00;23.10;95971.00;;;;5094568;28;20200;-84
2022/08/16 03:58:01;;;;;;;1.37;0.93;;;22.60;59.10;23.00;95965.00;;;;5093597;28;20253;-83
2022/08/16 04:00:31;;;;;;;0.87;0.87;;;22.50;59.00;23.00;95966.00;;;;5091197;28;20767;-83
2022/08/16 04:03:05;;;;;;;2.03;1.20;;;22.50;59.00;23.00;95965.00;;;;5075111;28;20718;-83
2022/08/16 04:05:35;;;;;;;0.93;0.93;;;22.40;59.10;22.90;95964.00;;;;5092323;28;20540;-83
2022/08/16 04:08:06;;;;;;;0.77;0.67;;;22.40;59.10;22.90;95971.00;;;;5094161;28;20221;-84
2022/08/16 04:10:33;;;;;;;1.47;0.90;;;22.30;59.10;22.80;95972.00;;;;5075922;28;20664;-84
2022/08/16 04:13:01;;;;;;;1.10;1.00;;;22.30;59.10;22.70;95966.00;;;;5073485;28;20243;-84
2022/08/16 04:15:29;;;;;;;1.13;0.97;;;22.20;59.20;22.70;95970.00;;;;5073646;28;20208;-84
2022/08/16 04:17:56;;;;;;;0.93;0.93;;;22.20;59.30;22.60;95964.00;;;;5073906;28;20204;-83
2022/08/16 04:20:25;;;;;;;2.67;0.93;;;22.10;59.40;22.60;95966.00;;;;5073740;28;20740;-84
2022/08/16 04:22:53;;;;;;;0.87;0.87;;;22.10;59.50;22.50;95966.00;;;;5074175;28;20261;-83
2022/08/16 04:25:22;;;;;;;0.90;0.90;;;22.00;59.50;22.50;95967.00;;;;5072812;28;20278;-84
2022/08/16 04:27:49;;;;;;;0.90;0.90;;;22.00;59.60;22.40;95967.00;;;;5073783;28;20241;-84
2022/08/16 04:30:20;;;;;;;1.03;1.03;;;21.90;59.60;22.40;95970.00;;;;5073619;28;20223;-83
2022/08/16 04:32:49;;;;;;;0.77;0.77;;;21.90;60.00;22.30;95974.00;;;;5098705;28;20226;-83
2022/08/16 04:35:22;;;;;;;1.30;1.20;;;21.80;60.30;22.30;95982.00;;;;5113995;28;20251;-84
2022/08/16 04:37:51;;;;;;;0.80;0.80;;;21.80;60.50;22.20;95983.00;;;;5102885;28;20197;-83
2022/08/16 04:40:20;;;;;;;0.80;0.80;;;21.80;60.50;22.20;95985.00;;;;5089626;28;20664;-83
2022/08/16 04:42:49;;;;;;;1.10;1.00;;;21.70;60.60;22.10;95982.00;;;;5093476;28;20203;-83
2022/08/16 04:45:17;;;;;;;1.03;1.03;;;21.70;60.80;22.10;95980.00;;;;5093244;28;20237;-83
2022/08/16 04:47:46;;;;;;;2.97;1.30;;;21.60;60.90;22.00;95976.00;;;;5093658;28;20196;-84
2022/08/16 04:50:17;;;;;;;1.07;1.00;;;21.60;61.10;22.00;95978.00;;;;5094195;28;20229;-83
2022/08/16 04:52:46;;;;;;;1.27;1.03;;;21.60;61.30;22.00;95974.00;;;;5094405;28;20205;-83
2022/08/16 04:55:18;;;;;;;1.40;1.30;;;21.60;61.60;22.00;95975.00;;;;5093691;28;20199;-84
2022/08/16 04:57:48;;;;;;;1.30;1.10;;;21.50;61.70;21.90;95984.00;;;;5093538;28;20237;-83
2022/08/16 05:00:22;;;;;;;1.33;1.13;;;21.50;61.80;21.90;95988.00;;;;5093839;28;20595;-84
2022/08/16 05:02:52;;;;;;;2.17;1.10;;;21.50;62.20;21.90;95991.00;;;;5094191;28;20670;-83
2022/08/16 05:05:21;;;;;;;1.50;1.30;;;21.40;62.10;22.00;95991.00;;;;5093296;28;20658;-84
2022/08/16 05:07:48;;;;;;;1.03;1.03;;;21.40;62.30;22.00;95995.00;;;;5095291;28;20225;-83
2022/08/16 05:10:17;;;;;;;1.40;1.20;;;21.40;62.40;22.00;95994.00;;;;5097112;28;20604;-84
2022/08/16 05:12:46;;;;;;;1.50;0.97;;;21.40;62.50;22.00;95991.00;;;;5097219;28;20198;-83
2022/08/16 05:15:15;;;;;;;0.80;0.80;;;21.40;62.70;22.00;95993.00;;;;5096273;28;20741;-84
2022/08/16 05:17:42;;;;;;;1.17;1.17;;;21.40;62.90;22.00;95994.00;;;;5096824;28;20207;-84
2022/08/16 05:20:11;;;;;;;1.97;1.57;;;21.40;63.10;22.00;95996.00;;;;5097423;28;20642;-83
2022/08/16 05:22:41;;;;;;;1.23;1.13;;;21.40;63.30;22.10;95990.00;;;;5097255;28;20223;-83
2022/08/16 05:25:11;;;;;;;1.10;1.00;;;21.50;63.30;22.10;96001.00;;;;5096376;28;20306;-84
2022/08/16 05:27:39;;;;;;;1.13;1.07;;;21.50;63.40;22.20;96003.00;;;;5097837;28;20570;-83
2022/08/16 05:30:11;;;;;;;1.13;1.03;;;21.50;63.50;22.20;95998.00;;;;5096939;28;20223;-84
2022/08/16 05:32:42;;;;;;;1.20;1.10;;;21.60;63.70;22.20;96001.00;;;;5096385;28;20208;-83
2022/08/16 05:35:11;;;;;;;2.13;1.33;;;21.60;63.90;22.30;95994.00;;;;5097067;28;20202;-84
2022/08/16 05:37:41;;;;;;;1.00;1.00;;;21.60;63.80;22.40;95997.00;;;;5097134;28;20197;-84
2022/08/16 05:40:12;;;;;;;1.30;1.20;;;21.70;63.90;22.40;95995.00;;;;5097736;28;20234;-83
2022/08/16 05:42:39;;;;;;;1.20;1.10;;;21.80;63.90;22.50;96003.00;;;;5101382;28;20282;-85
2022/08/16 05:45:08;;;;;;;1.17;0.97;;;21.80;63.80;22.50;96010.00;;;;5096349;28;20195;-84
2022/08/16 05:47:36;;;;;;;4.10;1.30;;;21.80;63.70;22.60;96000.00;;;;5096641;28;20212;-84
2022/08/16 05:50:06;;;;;;;0.90;0.90;;;21.90;63.60;22.60;95999.00;;;;5096547;28;20221;-84
2022/08/16 05:52:35;;;;;;;1.03;1.03;;;21.90;63.50;22.60;95999.00;;;;5095861;28;20256;-84
2022/08/16 05:55:03;;;;;;;0.90;0.90;;;21.90;63.30;22.70;96001.00;;;;5096822;28;20292;-84
2022/08/16 05:57:30;;;;;;;1.57;1.00;;;22.00;63.30;22.70;96001.00;;;;5096672;28;20241;-84
2022/08/16 05:59:58;;;;;;;1.10;1.00;;;22.00;63.20;22.70;95998.00;;;;5095854;28;20207;-84
2022/08/16 06:02:26;;;;;;;1.20;1.20;;;22.10;63.20;22.70;96007.00;;;;5094941;28;20203;-84
2022/08/16 06:04:53;;;;;;;0.93;0.93;;;22.10;63.20;22.80;96000.00;;;;5096772;28;20230;-84
2022/08/16 06:07:22;;;;;;;1.10;1.00;;;22.10;63.10;22.80;96010.00;;;;5096562;28;20192;-84
2022/08/16 06:09:49;;;;;;;1.00;1.00;;;22.20;63.10;22.90;96007.00;;;;5095584;28;20273;-84
2022/08/16 06:12:17;;;;;;;1.13;1.03;;;22.20;62.90;22.90;96003.00;;;;5095559;28;20195;-84
2022/08/16 06:14:44;;;;;;;0.97;0.90;;;22.20;63.60;22.90;96015.00;;;;5096403;28;20233;-84
2022/08/16 06:17:11;;;;;;;1.13;1.10;;;22.30;62.90;23.00;96009.00;;;;5095688;28;20221;-84
2022/08/16 06:19:39;;;;;;;1.33;1.10;;;22.30;62.80;23.00;96015.00;;;;5094525;28;20230;-84
2022/08/16 06:22:06;;;;;;;0.93;0.90;;;22.40;62.80;23.00;96012.00;;;;5095394;28;20289;-84
2022/08/16 06:24:35;;;;;;;1.20;1.00;;;22.40;62.70;23.10;96008.00;;;;5094312;28;20285;-84
2022/08/16 06:27:02;;;;;;;1.20;1.10;;;22.40;62.70;23.10;96009.00;;;;5095260;28;20278;-84
2022/08/16 06:29:29;;;;;;;1.40;1.20;;;22.50;62.70;23.20;96011.00;;;;5095665;28;20238;-84
2022/08/16 06:31:56;;;;;;;1.00;0.90;;;22.50;62.60;23.20;96013.00;;;;5096057;28;20210;-84
2022/08/16 06:34:24;;;;;;;1.10;1.10;;;22.60;62.60;23.20;96017.00;;;;5095607;28;20626;-84
2022/08/16 06:36:51;;;;;;;0.87;0.87;;;22.60;62.50;23.30;96024.00;;;;5095328;28;20197;-85
2022/08/16 06:39:18;;;;;;;0.80;0.80;;;22.70;62.50;23.30;96022.00;;;;5095711;28;20223;-84
2022/08/16 06:41:47;;;;;;;1.00;1.00;;;22.70;62.40;23.40;96018.00;;;;5096050;28;20202;-84
2022/08/16 06:44:14;;;;;;;1.27;1.20;;;22.80;62.20;23.50;96011.00;;;;5095551;28;20231;-84
2022/08/16 06:46:42;;;;;;;1.13;1.10;;;22.90;62.10;23.50;96016.00;;;;5095358;28;20611;-84
2022/08/16 06:49:11;;;;;;;0.73;0.73;;;22.90;62.00;23.60;96027.00;;;;5095357;28;20249;-84
2022/08/16 06:51:40;;;;;;;0.80;0.80;;;23.00;62.00;23.70;96025.00;;;;5095359;28;20235;-84
2022/08/16 06:54:09;;;;;;;1.50;0.87;;;23.10;62.00;23.70;96027.00;;;;5096116;28;20266;-84
2022/08/16 06:56:37;;;;;;;1.77;1.20;;;23.10;61.50;23.80;96028.00;;;;5095232;28;20750;-84
2022/08/16 06:59:05;;;;;;;0.80;0.70;;;23.10;61.10;23.80;96036.00;;;;5094984;28;20285;-85
2022/08/16 07:01:33;;;;;;;0.80;0.80;;;23.20;61.10;23.90;96031.00;;;;5093728;28;20241;-84
2022/08/16 07:04:00;;;;;;;1.50;0.93;;;23.30;61.00;24.00;96030.00;;;;5095452;28;20203;-84
2022/08/16 07:06:30;;;;;;;0.87;0.87;;;23.30;60.70;24.10;96035.00;;;;5095026;28;20244;-84
2022/08/16 07:08:57;;;;;;;1.43;1.30;;;23.40;60.50;24.10;96038.00;;;;5094997;28;20253;-84
2022/08/16 07:11:25;;;;;;;2.13;1.10;;;23.50;60.40;24.30;96040.00;;;;5095666;28;20191;-84
2022/08/16 07:13:53;;;;;;;1.20;1.20;;;23.50;61.00;24.40;96037.00;;;;5094853;28;20661;-84
2022/08/16 07:16:22;;;;;;;1.00;0.90;;;23.60;60.20;24.60;96037.00;;;;5095984;28;20631;-84
2022/08/16 07:18:49;;;;;;;1.90;1.10;;;23.80;60.40;24.70;96032.00;;;;5094469;28;20212;-84
2022/08/16 07:21:16;;;;;;;1.97;0.93;;;23.90;60.60;24.90;96035.00;;;;5094836;28;20193;-84
2022/08/16 07:23:45;;;;;;;0.83;0.73;;;24.00;60.10;25.10;96030.00;;;;5094812;28;20193;-84
2022/08/16 07:26:19;;;;;;;1.30;1.00;;;24.20;60.00;25.20;96027.00;;;;5112260;22;20286;-82
2022/08/16 07:28:47;;;;;;;0.87;0.87;;;24.30;60.50;25.40;96040.00;;;;5098910;28;20226;-81
2022/08/16 07:31:15;;;;;;;0.70;0.70;;;24.40;59.80;25.60;96039.00;;;;5099233;28;20271;-81
2022/08/16 07:33:44;;;;;;;1.20;1.10;;;24.60;59.60;25.80;96038.00;;;;5098646;28;20227;-81
2022/08/16 07:36:14;;;;;;;1.07;0.97;;;24.70;59.30;25.90;96038.00;;;;5098368;28;20289;-81
2022/08/16 07:38:42;;;;;;;2.30;1.10;;;24.80;59.00;26.10;96033.00;;;;5098167;28;20266;-81
2022/08/16 07:41:10;;;;;;;1.00;1.00;;;25.00;58.80;26.20;96028.00;;;;5099131;28;20203;-81
2022/08/16 07:43:38;;;;;;;1.43;1.10;;;25.10;58.50;26.30;96018.00;;;;5098634;28;20195;-82
2022/08/16 07:46:06;;;;;;;0.93;0.93;;;25.20;58.20;26.50;96028.00;;;;5098713;28;20195;-81
2022/08/16 07:48:33;;;;;;;1.00;1.00;;;25.40;57.90;26.60;96024.00;;;;5098628;28;20227;-81
2022/08/16 07:51:05;;;;;;;1.27;1.17;;;25.50;57.20;26.80;96028.00;;;;5098359;28;20195;-81
2022/08/16 07:53:34;;;;;;;1.60;1.20;;;25.70;56.80;26.90;96019.00;;;;5082743;28;20365;-81
2022/08/16 07:56:02;;;;;;;1.30;0.87;;;25.80;56.50;27.10;96026.00;;;;5076980;28;20202;-81
2022/08/16 07:58:30;;;;;;;1.03;1.03;;;25.90;56.50;27.20;96024.00;;;;5076344;28;20231;-81
2022/08/16 08:01:00;;;;;;;1.07;1.07;;;26.10;56.10;27.40;96026.00;;;;5075536;28;20246;-82
2022/08/16 08:03:27;;;;;;;1.03;0.90;;;26.20;55.80;27.50;96024.00;;;;5094437;28;20199;-82
2022/08/16 08:05:55;;;;;;;0.97;0.97;;;26.30;55.40;27.70;96031.00;;;;5096392;28;20281;-82
2022/08/16 08:08:23;;;;;;;1.07;1.00;;;26.50;55.10;27.80;96039.00;;;;5096571;28;20199;-81
2022/08/16 08:10:51;;;;;;;1.20;1.10;;;26.60;54.70;27.90;96038.00;;;;5096091;28;20196;-81
2022/08/16 08:13:18;;;;;;;1.07;0.97;;;26.80;54.70;28.10;96033.00;;;;5097717;28;20671;-81
2022/08/16 08:15:46;;;;;;;1.10;1.10;;;26.90;54.60;28.20;96039.00;;;;5096985;28;20322;-81
2022/08/16 08:18:14;;;;;;;0.80;0.80;;;27.00;54.10;28.40;96037.00;;;;5096991;28;20207;-82
2022/08/16 08:20:43;;;;;;;0.90;0.90;;;27.20;54.00;28.50;96050.00;;;;5097200;28;20210;-81
2022/08/16 08:23:13;;;;;;;4.40;1.40;;;27.30;53.60;28.70;96036.00;;;;5096935;28;20234;-81
2022/08/16 08:25:44;;;;;;;1.03;1.00;;;27.40;53.20;28.80;96045.00;;;;5096350;28;20264;-81
2022/08/16 08:28:13;;;;;;;1.02;0.93;;;27.60;53.10;28.90;96044.00;;;;5096174;28;20206;-82
2022/08/16 08:30:41;;;;;;;0.97;0.97;;;27.70;53.30;29.10;96049.00;;;;5096922;28;20248;-81
2022/08/16 08:33:08;;;;;;;0.90;0.90;;;27.90;53.10;29.30;96047.00;;;;5095140;28;20692;-82
2022/08/16 08:35:36;;;;;;;1.13;1.00;;;28.00;52.80;29.40;96047.00;;;;5095253;28;20501;-82
2022/08/16 08:38:07;;;;;;;1.30;1.25;;;28.10;52.70;29.60;96047.00;;;;5095516;28;20560;-82
2022/08/16 08:40:35;;;;;;;0.98;0.80;;;28.30;52.20;29.70;96053.00;;;;5095173;28;20690;-82
2022/08/16 08:43:04;;;;;;;0.93;0.93;;;28.40;52.00;29.90;96056.00;;;;5096544;28;20230;-81
2022/08/16 08:45:31;;;;;;;1.15;1.10;;;28.50;52.00;30.00;96059.00;;;;5099646;28;20612;-82
2022/08/16 08:47:58;;;;;;;1.45;1.00;;;28.70;51.80;30.20;96057.00;;;;5100232;28;20229;-81
2022/08/16 08:50:26;;;;;;;1.10;1.00;;;28.80;51.30;30.30;96058.00;;;;5099465;28;20256;-81
2022/08/16 08:52:54;;;;;;;2.42;1.00;;;29.00;51.20;30.50;96063.00;;;;5100446;28;20210;-82
2022/08/16 08:55:22;;;;;;;1.83;1.15;;;29.10;51.20;30.70;96062.00;;;;5099340;28;20302;-81
2022/08/16 08:57:51;;;;;;;1.20;1.08;;;29.30;50.50;30.80;96063.00;;;;5100619;28;20282;-81
2022/08/16 09:00:25;;;;;;;2.50;1.15;;;29.40;49.80;31.00;96064.00;;;;5099644;28;20636;-81
2022/08/16 09:02:52;;;;;;;0.88;0.88;;;29.60;49.70;31.10;96062.00;;;;5112703;28;20205;-82
2022/08/16 09:05:24;;;;;;;1.00;1.00;;;29.70;49.80;31.30;96066.00;;;;5120388;28;20326;-81
2022/08/16 09:07:51;;;;;;;1.50;1.00;;;29.80;49.70;31.50;96069.00;;;;5120111;28;20659;-82
2022/08/16 09:10:19;;;;;;;1.30;1.08;;;30.00;49.20;31.60;96068.00;;;;5120338;28;20218;-82
2022/08/16 09:12:49;;;;;;;1.63;1.10;;;30.10;48.50;31.80;96061.00;;;;5120225;28;20262;-82
2022/08/16 09:15:19;;;;;;;1.92;1.10;;;30.20;48.20;31.90;96065.00;;;;5118994;28;20694;-82
2022/08/16 09:17:46;;;;;;;1.25;1.15;;;30.30;48.30;32.10;96066.00;;;;5120624;28;20717;-82
2022/08/16 09:20:14;;;;;;;1.05;0.93;;;30.50;47.60;32.20;96066.00;;;;5120060;28;20267;-82
2022/08/16 09:22:42;;;;;;;3.47;1.10;;;30.60;47.50;32.30;96063.00;;;;5119540;28;20254;-82
2022/08/16 09:25:12;;;;;;;1.52;1.00;;;30.70;46.80;32.40;96060.00;;;;5119540;28;20279;-81
2022/08/16 09:27:40;;;;;;;1.00;0.90;;;30.80;46.50;32.50;96060.00;;;;5119768;28;20286;-81
2022/08/16 09:30:10;;;;;;;1.13;1.02;;;30.90;46.40;32.50;96057.00;;;;5119181;28;20219;-82
2022/08/16 09:32:38;;;;;;;1.40;1.30;;;31.00;46.20;32.60;96067.00;;;;5108379;28;20222;-82
2022/08/16 09:35:08;;;;;;;1.20;1.20;;;31.10;46.10;32.70;96066.00;;;;5098545;28;20222;-82
2022/08/16 09:37:35;;;;;;;1.10;1.10;;;31.20;45.20;32.70;96064.00;;;;5099446;28;20203;-82
2022/08/16 09:40:08;;;;;;;1.55;1.00;;;31.30;45.40;32.80;96068.00;;;;5098539;28;20250;-82
2022/08/16 09:42:36;;;;;;;1.85;0.95;;;31.40;45.70;32.90;96066.00;;;;5098058;28;20207;-81
2022/08/16 09:45:07;;;;;;;1.40;0.88;;;31.50;45.60;33.10;96071.00;;;;5098419;28;20505;-82
2022/08/16 09:47:39;;;;;;;1.58;0.80;;;31.60;45.60;33.30;96070.00;;;;5099700;28;20210;-82
2022/08/16 09:50:14;;;;;;;1.30;1.17;;;31.70;45.30;33.50;96075.00;;;;5099425;28;20279;-82
2022/08/16 09:52:41;;;;;;;1.92;1.08;;;31.90;44.50;33.60;96072.00;;;;5099951;28;20267;-81
2022/08/16 09:55:11;;;;;;;1.30;0.90;;;32.00;44.40;33.70;96062.00;;;;5099895;28;20367;-82
2022/08/16 09:57:41;;;;;;;1.08;0.98;;;32.10;44.30;33.90;96061.00;;;;5100337;28;20214;-82
2022/08/16 10:00:12;;;;;;;1.45;1.02;;;32.20;44.20;34.10;96060.00;;;;5099074;28;20211;-82
2022/08/16 10:02:41;;;;;;;0.82;0.82;;;32.30;44.10;34.30;96067.00;;;;5098703;28;20234;-82
2022/08/16 10:05:10;;;;;;;1.98;1.10;;;32.50;43.80;34.40;96070.00;;;;5098402;28;20203;-81
2022/08/16 10:07:38;;;;;;;0.90;0.90;;;32.60;43.70;34.60;96061.00;;;;5097824;28;20195;-81
2022/08/16 10:10:07;;;;;;;2.42;1.05;;;32.70;43.60;34.70;96059.00;;;;5099142;28;20241;-82
2022/08/16 10:15:21;;;;;;;0.98;0.98;;;33.00;43.00;34.80;96062.00;;;;5098697;28;20264;-81
2022/08/16 10:17:53;;;;;;;1.52;1.30;;;33.00;42.80;34.90;96056.00;;;;5098838;28;20203;-81
2022/08/16 10:20:24;;;;;;;0.90;0.90;;;33.20;42.80;35.00;96062.00;;;;5099941;28;20692;-81
2022/08/16 10:22:55;;;;;;;1.58;1.05;;;33.20;42.30;35.00;96060.00;;;;5100375;28;20286;-82
2022/08/16 10:25:22;;;;;;;1.65;0.90;;;33.30;42.10;35.10;96054.00;;;;5100485;28;20233;-81
2022/08/16 10:27:50;;;;;;;1.02;0.93;;;33.40;42.00;35.10;96059.00;;;;5099677;28;20226;-81
2022/08/16 10:30:18;;;;;;;1.00;1.00;;;33.50;41.60;35.10;96065.00;;;;5099599;28;20223;-81
2022/08/16 10:32:45;;;;;;;0.95;0.93;;;33.60;41.70;35.20;96056.00;;;;5111901;28;20203;-81
2022/08/16 10:35:13;;;;;;;0.77;0.77;;;33.60;41.60;35.20;96053.00;;;;5119950;28;20686;-81
2022/08/16 10:37:41;;;;;;;0.80;0.80;;;33.80;41.40;35.20;96052.00;;;;5119546;28;20202;-81
2022/08/16 10:40:11;;;;;;;0.85;0.85;;;33.80;40.80;35.20;96049.00;;;;5120214;28;20442;-81
2022/08/16 10:42:39;;;;;;;1.15;1.05;;;33.90;41.00;35.20;96045.00;;;;5120273;28;20226;-81
2022/08/16 10:45:09;;;;;;;1.30;1.20;;;34.00;41.10;35.30;96048.00;;;;5120565;28;20252;-81
2022/08/16 10:47:37;;;;;;;0.90;0.90;;;34.10;41.30;35.40;96045.00;;;;5119208;28;20584;-81
2022/08/16 10:50:07;;;;;;;1.30;0.90;;;34.20;41.20;35.50;96038.00;;;;5119586;28;20218;-81
2022/08/16 10:52:34;;;;;;;1.17;0.90;;;34.30;40.40;35.40;96033.00;;;;5119667;28;20220;-81
2022/08/16 10:55:04;;;;;;;1.02;0.88;;;34.30;40.10;35.40;96041.00;;;;5118001;28;20403;-81
2022/08/16 10:57:31;;;;;;;0.90;0.90;;;34.40;40.10;35.40;96035.00;;;;5118560;28;20608;-81
2022/08/16 10:59:59;;;;;;;0.93;0.93;;;34.40;39.80;35.30;96036.00;;;;5118341;28;20218;-81
2022/08/16 11:02:26;;;;;;;1.63;0.95;;;34.50;39.50;35.30;96039.00;;;;5109356;28;20206;-81
2022/08/16 11:04:53;;;;;;;0.90;0.90;;;34.40;39.10;35.20;96040.00;;;;5098790;28;20256;-81